Terminal Aerodrome Forecast
Issued by NWS Charleston, WV

Current Version | Previous Version | Graphics & Text | Print | Product List | Glossary On
Versions: 1 2 3 4 5 6 7 8 9 10 11 12 13 14 15 16 17 18 19 20 21 22 23 24 25
482
FTUS41 KRLX 150541
TAFEKN
TAF
KEKN 150541Z 1506/1606 18004KT 5SM BR FEW250
      TEMPO 1506/1508 1 1/2SM BR SCT002
     FM150800 18004KT 1/4SM FG OVC001
     FM151300 21005KT P6SM FEW250
     FM151800 24012G18KT P6SM FEW140
     FM152200 24010KT P6SM BKN025
     FM160000 26009KT P6SM SHRA OVC008
     FM160400 29007KT 3SM BR BKN003=

USA.gov is the U.S. government's official web portal to all federal, state and local government web resources and services.